Antabamba, Peru

1:35 AM PET on August 02, 2014 (GMT -0500)
Andahuaylas (SPHY) Elev 11299 ft | 13.71 °S, 73.35 °W | Change Station

Current weather conditions updated 11 hours ago

Rain
Rain
42 °F
Feels Like 42 °F
N
1
Wind Variable Wind from SE
Gusts mph

Today is forecast to be nearly the same temperature as yesterday.

Today
High -- | Low -- °F
--% Chance of Precip.
Yesterday
High -- | Low -- °F
Precip. -- in
6:12 AM 5:42 PM
Waxing Crescent, 33% visible
Pressure 30.66 in
Visibility 6.2 miles
Clouds Few 1200 ft
Dew Point 37 °F
Humidity 85%
Rainfall 0.00 in
Snow Depth Not available.
UV 10 out of 12
Pollen Not available.
Air Quality Not available.
Flu Activity Not available.
METAR SPHY 011900Z 36008KT 9999 FEW012 15/00 Q1038 RMK PP000

More Conditions Fewer Conditions

Pressure 30.66 in
Visibility 6.2 miles
Clouds Few 1200 ft
Dew Point 37 °F
Humidity 85%
Rainfall 0.00 in
Snow Depth Not available.
UV 10 out of 12
Pollen Not available.
Air Quality Not available.
Flu Activity Not available.
METAR SPHY 011900Z 36008KT 9999 FEW012 15/00 Q1038 RMK PP000

More Conditions Fewer Conditions

10-Day Weather Forecast

Almanac

Astronomy

Aug. 02, 2014 Rise Set
Actual Time 6:12 AM PET 5:42 PM PET
Civil Twilight 5:50 AM PET 6:05 PM PET
Nautical Twilight 5:24 AM PET 6:30 PM PET
Astronomical Twilight 4:59 AM PET 6:56 PM PET
Moon 10:27 AM PET 11:11 PM PET
Length of Visible Light 12h 14m
Length of Day
11h 29m
Tomorrow will be 0m 35s longer.
Waxing Crescent, 33% of the Moon is Illuminated
Today
Waxing Crescent
Aug 3
First Quarter
Aug 10
Full
Aug 17
Last Quarter
Aug 25
New

Yesterday's Extremes

Country Highs Country Lows

Community

WunderPhotos

Upload Photos

1,739,830 photos uploaded!

Nearby

Snow Depth

Not available.

Earthquake Activity

City Distance Mag. Time & Date
No recent earthquake activity has been reported nearby.
Minimum magnitude displayed is 2.5.

Coastal Water Temperatures

Place Temperature
No Stations Reporting

Nearby Weather Stations

There are no personal weather stations in this area.